»·PEaware :: N518TB L52-L88

N518TB :: L52-L88

FLIGHT INFORMATION

Flight Status: Arrived
Operator: Privately registered:
United States
More flights under this callsign
Pilot: Angelo C. (26356)
Aircraft: SOCATA TBM-900
(TBM9)
More flights by this aircraft type
Origin: L52 Oceano Co
United States
Destination: L88 New Cuyama
United States
More flights between these airports :: More routes between these airports
Route:
File this flight plan on PilotEdge
Remarks: CAT-1 rating
Altitude:
(Current/Filed)
4,500ft
Speed:
(Current/Filed)
230kts
Departed: 25-Sep-19 07:12 AM
Arrived: 25-Sep-19 07:28 AM
Distance/Time
Traveled:
47nm/0:16
Distance/Time
To Go:
Arrived

Flight Plot

Page will automatically refresh every two minutes.


Map Options




Map Legend


Flown Route
Filed Route
Departure Airport
Arrival Airport
Navaid (VOR, NDB)
Fix

Horizontal Profiles

Position Reports

Time Latitude Longitude Heading Altitude Ground
Speed
25-Sep-19 06:37 35.103336 -120.624319 35 14ft 0kts
25-Sep-19 06:38 35.103336 -120.624319 35 14ft 0kts
25-Sep-19 06:39 35.103336 -120.624319 35 14ft 0kts
25-Sep-19 06:40 35.103336 -120.624319 35 14ft 0kts
25-Sep-19 06:41 35.103336 -120.624319 35 14ft 0kts
25-Sep-19 06:42 35.103336 -120.624319 35 14ft 0kts
25-Sep-19 06:43 35.103336 -120.624319 35 14ft 0kts
25-Sep-19 06:44 35.103336 -120.624319 35 14ft 0kts
25-Sep-19 06:45 35.103336 -120.624319 35 14ft 0kts
25-Sep-19 06:46 35.103336 -120.624319 35 14ft 0kts
25-Sep-19 06:47 35.103336 -120.624319 35 14ft 0kts
25-Sep-19 06:48 35.103336 -120.624319 35 14ft 0kts
25-Sep-19 06:49 35.103336 -120.624319 35 14ft 0kts
25-Sep-19 06:50 35.103336 -120.624319 35 14ft 0kts
25-Sep-19 06:51 35.103336 -120.624319 35 14ft 0kts
25-Sep-19 06:52 35.103336 -120.624319 35 14ft 0kts
25-Sep-19 06:53 35.103336 -120.624319 35 14ft 0kts
25-Sep-19 06:54 35.103336 -120.624319 35 14ft 0kts
25-Sep-19 06:55 35.103336 -120.624319 35 14ft 0kts
25-Sep-19 06:56 35.103336 -120.624319 35 14ft 0kts
25-Sep-19 06:57 35.103336 -120.624319 35 14ft 0kts
25-Sep-19 06:58 35.103336 -120.624319 35 14ft 0kts
25-Sep-19 06:59 35.103336 -120.624319 35 14ft 0kts
25-Sep-19 07:00 35.103336 -120.624319 35 14ft 0kts
25-Sep-19 07:01 35.103336 -120.624319 35 14ft 0kts
25-Sep-19 07:02 35.103336 -120.624319 35 14ft 0kts
25-Sep-19 07:03 35.103336 -120.624319 35 14ft 0kts
25-Sep-19 07:04 35.103336 -120.624319 35 14ft 0kts
25-Sep-19 07:05 35.103336 -120.624319 35 14ft 0kts
25-Sep-19 07:06 35.103336 -120.624319 35 14ft 0kts
25-Sep-19 07:07 35.103336 -120.624319 35 14ft 0kts
25-Sep-19 07:08 35.103336 -120.624319 35 14ft 0kts
25-Sep-19 07:09 35.103336 -120.624319 35 14ft 0kts
25-Sep-19 07:10 35.102984 -120.624999 121 13ft 29kts
25-Sep-19 07:11 35.085338 -120.592325 114 1963ft 134kts
25-Sep-19 07:12 35.077678 -120.548372 98 4500ft 150kts
25-Sep-19 07:13 35.067326 -120.482519 99 4516ft 224kts
25-Sep-19 07:14 35.055137 -120.404950 99 4502ft 235kts
25-Sep-19 07:15 35.042774 -120.326412 99 4500ft 236kts
25-Sep-19 07:16 35.030301 -120.247489 99 4500ft 236kts
25-Sep-19 07:17 35.018271 -120.171654 100 5331ft 225kts
25-Sep-19 07:18 35.005727 -120.092899 100 5529ft 240kts
25-Sep-19 07:19 34.992882 -120.012681 100 5549ft 241kts
25-Sep-19 07:20 34.979969 -119.932356 99 5550ft 241kts
25-Sep-19 07:21 34.967000 -119.852064 99 5337ft 230kts
25-Sep-19 07:22 34.955064 -119.778328 100 3882ft 218kts
25-Sep-19 07:23 34.943674 -119.716763 114 3376ft 144kts
25-Sep-19 07:24 34.929682 -119.685404 115 3285ft 108kts
25-Sep-19 07:25 34.926731 -119.655599 358 2955ft 96kts
25-Sep-19 07:26 34.938502 -119.682036 295 2191ft 80kts
25-Sep-19 07:27 34.941973 -119.690546 297 2157ft 22kts
25-Sep-19 07:28 34.943771 -119.690836 296 2153ft 0kts
25-Sep-19 07:29 34.943771 -119.690836 296 2153ft 0kts

Navigation Log

Ident Type
Flight plan parsing failed, navigation log unavailable